Time;durP1;ratioP1;P1;durP2;ratioP2;P2;SDS_P1;SDS_P2;PMS_P1;PMS_P2;Temp;Humidity;BMP_temperature;BMP_pressure;BME280_temperature;BME280_humidity;BME280_pressure;Samples;Min_cycle;Max_cycle;Signal;HPM_P1;HPM_P2
2023/04/09 00:21:36;;;;;;;34.72;26.85;;;;;;;8.49;83.94;102501.25;1317531;23;20341;-73
2023/04/09 00:24:02;;;;;;;33.92;27.02;;;;;;;8.46;84.21;102490.72;4934993;29;20504;-73
2023/04/09 00:26:27;;;;;;;36.25;28.17;;;;;;;8.48;84.28;102494.28;4902722;29;20354;-73
2023/04/09 00:28:53;;;;;;;36.33;28.35;;;;;;;8.44;84.17;102488.09;4892118;29;20048;-73
2023/04/09 00:31:18;;;;;;;37.42;28.70;;;;;;;8.46;84.01;102490.72;4886155;29;20039;-73
2023/04/09 00:33:44;;;;;;;37.35;28.13;;;;;;;8.44;84.19;102487.19;4902931;29;20059;-73
2023/04/09 00:36:09;;;;;;;38.30;28.75;;;;;;;8.42;84.65;102476.69;4887491;29;20067;-73
2023/04/09 00:38:34;;;;;;;40.45;30.58;;;;;;;8.43;84.46;102485.41;4879681;29;20040;-73
2023/04/09 00:41:01;;;;;;;37.47;28.30;;;;;;;8.41;84.13;102474.06;4915369;29;20050;-73
2023/04/09 00:43:27;;;;;;;37.88;28.13;;;;;;;8.40;84.66;102477.50;4917329;29;20562;-73
2023/04/09 00:45:53;;;;;;;37.65;29.20;;;;;;;8.39;84.09;102480.94;4902716;29;20067;-73
2023/04/09 00:48:18;;;;;;;40.13;29.50;;;;;;;8.38;84.83;102479.22;4883682;29;20075;-73
2023/04/09 00:50:43;;;;;;;37.83;29.08;;;;;;;8.38;84.57;102474.84;4883868;29;20404;-73
2023/04/09 00:53:10;;;;;;;41.03;29.35;;;;;;;8.39;84.61;102480.94;4895369;29;20054;-73
2023/04/09 00:55:39;;;;;;;37.15;28.58;;;;;;;8.37;84.99;102475.69;4917645;29;20050;-73
2023/04/09 00:58:04;;;;;;;38.80;28.17;;;;;;;8.36;84.66;102470.44;4918089;29;20047;-73
2023/04/09 01:00:30;;;;;;;38.42;29.08;;;;;;;8.37;85.29;102474.81;4902377;29;20036;-73
2023/04/09 01:02:56;;;;;;;39.70;30.05;;;;;;;8.33;84.99;102468.63;4902452;29;20067;-73
2023/04/09 01:05:30;;;;;;;39.08;28.27;;;;;;;8.30;85.48;102477.28;4916808;29;20042;-74
2023/04/09 01:08:35;;;;;;;39.30;27.77;;;;;;;8.32;85.61;102470.38;4921575;29;20043;-73
2023/04/09 01:11:15;;;;;;;38.63;29.63;;;;;;;8.29;85.75;102472.91;4924275;29;20046;-73
2023/04/09 01:13:57;;;;;;;40.22;30.27;;;;;;;8.31;85.78;102471.19;4924721;29;20031;-73
2023/04/09 01:16:23;;;;;;;39.13;29.10;;;;;;;8.32;85.46;102467.75;4924306;29;20032;-73
2023/04/09 01:18:58;;;;;;;39.42;29.48;;;;;;;8.33;85.85;102463.41;4907947;29;20177;-73
2023/04/09 01:21:32;;;;;;;40.42;29.48;;;;;;;8.32;85.96;102459.91;4922915;29;20445;-73
2023/04/09 01:24:25;;;;;;;40.60;28.52;;;;;;;8.33;85.65;102461.69;4923686;29;20605;-73
2023/04/09 01:26:50;;;;;;;38.40;28.50;;;;;;;8.32;86.31;102466.88;4924448;29;20181;-73
2023/04/09 01:29:19;;;;;;;39.20;28.40;;;;;;;8.30;86.30;102464.25;4924078;29;20067;-73
2023/04/09 01:31:45;;;;;;;36.95;28.25;;;;;;;8.33;86.12;102461.69;4923575;29;20039;-73
2023/04/09 01:34:13;;;;;;;38.33;28.67;;;;;;;8.33;85.80;102459.09;4908446;29;20102;-73
2023/04/09 01:36:40;;;;;;;40.33;30.10;;;;;;;8.33;86.08;102466.91;4921640;29;20118;-73
2023/04/09 01:39:06;;;;;;;40.83;29.17;;;;;;;8.30;86.43;102458.09;4908617;29;20055;-73
2023/04/09 01:41:34;;;;;;;40.13;28.70;;;;;;;8.29;86.03;102454.63;4903461;29;20095;-73
2023/04/09 01:44:02;;;;;;;37.65;28.55;;;;;;;8.31;87.04;102459.88;4905199;29;20036;-73
2023/04/09 01:46:28;;;;;;;43.45;30.10;;;;;;;8.33;86.63;102460.78;4917569;29;20048;-73
2023/04/09 01:48:55;;;;;;;39.53;29.83;;;;;;;8.31;86.93;102458.13;4903959;29;20040;-73
2023/04/09 01:51:21;;;;;;;38.75;29.00;;;;;;;8.33;86.37;102451.25;4904919;29;20036;-73
2023/04/09 01:53:48;;;;;;;39.83;29.05;;;;;;;8.30;86.71;102453.78;4889473;29;20051;-73
2023/04/09 01:56:13;;;;;;;38.55;29.70;;;;;;;8.30;87.00;102459.00;4899617;29;20524;-73
2023/04/09 01:58:39;;;;;;;40.85;29.70;;;;;;;8.29;87.13;102452.00;4927893;29;20058;-73
2023/04/09 02:01:05;;;;;;;44.30;30.85;;;;;;;8.29;86.70;102452.00;4923729;29;20071;-73
2023/04/09 02:03:36;;;;;;;42.17;31.00;;;;;;;8.29;86.98;102457.25;4923615;29;20138;-73
2023/04/09 02:06:14;;;;;;;43.50;31.35;;;;;;;8.30;87.41;102458.09;4924042;29;20032;-73
2023/04/09 02:08:47;;;;;;;44.53;31.88;;;;;;;8.27;86.81;102453.69;4923428;29;20036;-73
2023/04/09 02:11:14;;;;;;;43.22;32.30;;;;;;;8.26;86.77;102451.94;4921830;29;20035;-73
2023/04/09 02:13:41;;;;;;;43.08;31.95;;;;;;;8.26;87.10;102451.94;4923941;29;20044;-73
2023/04/09 02:16:10;;;;;;;44.15;32.20;;;;;;;8.22;86.90;102450.09;4923778;29;20502;-73
2023/04/09 02:18:36;;;;;;;46.88;32.75;;;;;;;8.25;87.06;102457.13;4921639;29;20040;-73
2023/04/09 02:21:04;;;;;;;43.05;32.30;;;;;;;8.25;87.30;102454.53;4919462;29;20039;-73
2023/04/09 02:23:32;;;;;;;48.13;34.42;;;;;;;8.24;86.39;102452.75;4920747;29;20047;-73
2023/04/09 02:25:58;;;;;;;47.28;33.78;;;;;;;8.20;87.15;102449.16;4920833;29;20031;-73
2023/04/09 02:28:23;;;;;;;47.75;33.15;;;;;;;8.20;86.62;102449.16;4920413;29;20077;-73
2023/04/09 02:30:49;;;;;;;50.33;34.47;;;;;;;8.18;86.76;102445.66;4918943;29;20062;-70
2023/04/09 02:33:14;;;;;;;44.42;32.42;;;;;;;8.19;87.15;102451.75;4904973;29;20087;-70
2023/04/09 02:35:40;;;;;;;46.72;33.67;;;;;;;8.14;87.51;102442.06;4889351;29;20039;-70
2023/04/09 02:38:07;;;;;;;48.95;35.90;;;;;;;8.13;86.87;102442.03;4899127;29;20040;-70
2023/04/09 02:40:32;;;;;;;48.60;34.53;;;;;;;8.13;87.01;102444.66;4895321;29;20059;-69
2023/04/09 02:42:58;;;;;;;50.13;34.83;;;;;;;8.11;87.10;102442.00;4901342;29;20396;-70
2023/04/09 02:45:23;;;;;;;52.38;34.92;;;;;;;8.14;86.55;102446.41;4887216;29;20112;-70
2023/04/09 02:47:49;;;;;;;48.63;36.47;;;;;;;8.11;86.85;102441.13;4903891;29;20522;-70
2023/04/09 02:50:17;;;;;;;52.17;35.58;;;;;;;8.10;87.00;102444.56;4919403;29;20046;-69
2023/04/09 02:52:45;;;;;;;50.05;35.30;;;;;;;8.09;86.87;102437.63;4885738;29;20508;-70
2023/04/09 02:55:10;;;;;;;48.33;34.53;;;;;;;8.07;87.00;102436.69;4900015;29;20040;-70
2023/04/09 02:57:36;;;;;;;51.63;34.83;;;;;;;8.05;87.87;102441.00;4903384;29;20388;-70
2023/04/09 03:00:03;;;;;;;49.85;34.80;;;;;;;8.04;87.26;102442.69;4898988;29;20382;-70
2023/04/09 03:02:28;;;;;;;53.20;36.22;;;;;;;8.01;87.33;102445.25;4916729;29;20112;-70
2023/04/09 03:04:54;;;;;;;50.85;36.25;;;;;;;8.04;87.36;102431.38;4887734;29;20590;-69
2023/04/09 03:07:19;;;;;;;52.28;35.78;;;;;;;8.00;87.41;102427.78;4904343;29;20419;-70
2023/04/09 03:09:44;;;;;;;54.47;36.42;;;;;;;8.03;87.08;102432.22;4903795;29;20469;-70
2023/04/09 03:12:10;;;;;;;54.50;36.85;;;;;;;8.02;87.29;102433.97;4918592;29;20087;-69
2023/04/09 03:14:35;;;;;;;50.83;36.28;;;;;;;8.01;86.67;102426.97;4904327;29;20095;-69
2023/04/09 03:17:01;;;;;;;53.28;35.92;;;;;;;7.98;87.30;102426.91;4903998;29;20098;-69
2023/04/09 03:19:26;;;;;;;57.70;37.03;;;;;;;7.97;87.35;102432.94;4904202;29;20043;-70
2023/04/09 03:21:51;;;;;;;50.70;35.75;;;;;;;7.95;86.60;102434.66;4912600;29;20054;-69
2023/04/09 03:24:17;;;;;;;52.92;37.00;;;;;;;7.93;86.38;102426.78;4888237;29;20062;-69
2023/04/09 03:26:42;;;;;;;52.33;35.22;;;;;;;7.88;86.81;102432.72;4888289;29;20857;-69
2023/04/09 03:29:08;;;;;;;51.17;35.80;;;;;;;7.86;86.57;102429.19;4904128;29;20035;-70
2023/04/09 03:31:33;;;;;;;50.28;33.30;;;;;;;7.88;85.30;102430.13;4884299;29;20396;-70
2023/04/09 03:33:59;;;;;;;49.88;33.33;;;;;;;7.79;85.13;102423.81;4915817;29;20051;-70
2023/04/09 03:36:26;;;;;;;45.05;30.85;;;;;;;7.74;84.86;102420.22;4887952;29;20035;-70
2023/04/09 03:38:52;;;;;;;46.58;32.83;;;;;;;7.71;84.20;102427.09;4903673;29;20047;-69
2023/04/09 03:41:17;;;;;;;44.75;31.70;;;;;;;7.67;84.39;102414.81;4902579;29;20050;-70
2023/04/09 03:43:43;;;;;;;46.08;32.47;;;;;;;7.60;84.06;102413.75;4887983;29;20070;-70
2023/04/09 03:46:15;;;;;;;48.40;32.63;;;;;;;7.59;84.72;102407.66;4899926;29;20044;-70
2023/04/09 03:48:41;;;;;;;46.72;32.45;;;;;;;7.55;85.27;102408.41;4903528;29;20047;-69
2023/04/09 03:51:26;;;;;;;47.15;31.23;;;;;;;7.55;84.81;102413.63;4918258;29;20487;-70
2023/04/09 03:53:51;;;;;;;49.63;31.77;;;;;;;7.51;84.42;102405.69;4918957;29;20062;-70
2023/04/09 03:56:17;;;;;;;50.03;32.75;;;;;;;7.48;84.85;102403.88;4933026;29;20483;-69
2023/04/09 03:58:42;;;;;;;49.28;32.83;;;;;;;7.46;85.29;102402.97;4905921;29;20052;-70
2023/04/09 04:01:07;;;;;;;46.15;31.27;;;;;;;7.44;85.06;102404.66;4886852;29;20094;-70
2023/04/09 04:03:33;;;;;;;49.03;32.80;;;;;;;7.41;85.17;102407.19;4887261;29;20043;-69
2023/04/09 04:06:02;;;;;;;49.28;32.03;;;;;;;7.39;84.82;102403.66;4903406;29;20356;-69
2023/04/09 04:08:28;;;;;;;47.55;32.00;;;;;;;7.35;84.36;102404.41;4887666;29;20039;-69
2023/04/09 04:10:54;;;;;;;46.88;30.98;;;;;;;7.31;85.03;102403.44;4902646;29;20046;-70
2023/04/09 04:13:20;;;;;;;44.63;29.73;;;;;;;7.25;84.54;102400.66;4903002;29;20455;-70
2023/04/09 04:15:45;;;;;;;43.67;30.27;;;;;;;7.19;84.69;102410.94;4902882;29;20161;-69
2023/04/09 04:18:10;;;;;;;46.50;30.38;;;;;;;7.12;85.21;102412.50;4899343;29;20048;-70
2023/04/09 04:20:37;;;;;;;45.28;30.20;;;;;;;7.07;84.95;102414.97;4886760;29;20058;-69
2023/04/09 04:23:03;;;;;;;44.08;29.75;;;;;;;7.00;85.06;102409.56;4899077;29;20088;-70
2023/04/09 04:25:30;;;;;;;45.22;30.77;;;;;;;6.90;85.38;102414.50;4917303;29;20082;-69
2023/04/09 04:27:55;;;;;;;48.17;31.30;;;;;;;6.85;85.21;102407.38;4902376;29;20043;-69
2023/04/09 04:30:21;;;;;;;45.80;30.13;;;;;;;6.79;84.88;102407.22;4902372;29;20040;-70
2023/04/09 04:32:49;;;;;;;40.85;28.67;;;;;;;6.69;85.20;102413.88;4900962;29;20058;-69
2023/04/09 04:35:15;;;;;;;44.70;29.70;;;;;;;6.62;85.61;102409.31;4901182;29;20063;-69
2023/04/09 04:37:41;;;;;;;45.15;29.95;;;;;;;6.54;85.78;102415.19;4901486;29;20082;-69
2023/04/09 04:40:07;;;;;;;49.15;29.73;;;;;;;6.46;86.39;102424.47;4917227;29;20368;-70
2023/04/09 04:42:33;;;;;;;43.85;30.02;;;;;;;6.39;86.07;102412.09;4917185;29;20114;-69
2023/04/09 04:44:59;;;;;;;44.13;30.83;;;;;;;6.34;86.50;102405.88;4917740;29;20039;-69
2023/04/09 04:47:24;;;;;;;44.65;30.42;;;;;;;6.27;86.39;102412.63;4918960;29;20044;-69
2023/04/09 04:49:51;;;;;;;44.88;29.85;;;;;;;6.22;86.26;102415.09;4918086;29;20098;-70
2023/04/09 04:52:16;;;;;;;43.63;29.98;;;;;;;6.15;86.43;102417.41;4882288;29;20040;-69
2023/04/09 04:54:42;;;;;;;46.95;30.65;;;;;;;6.07;86.22;102414.59;4900910;29;20040;-69
2023/04/09 04:57:07;;;;;;;45.95;29.63;;;;;;;5.99;86.75;102416.94;4889670;29;20061;-69
2023/04/09 04:59:38;;;;;;;47.15;30.63;;;;;;;5.95;86.96;102408.94;4920928;29;20570;-70
2023/04/09 05:02:04;;;;;;;47.10;29.98;;;;;;;5.87;87.21;102412.19;4920426;29;20047;-69
2023/04/09 05:04:30;;;;;;;45.13;30.95;;;;;;;5.85;87.49;102423.38;4902483;29;20046;-69
2023/04/09 05:06:56;;;;;;;46.65;29.75;;;;;;;5.82;87.35;102424.16;4902153;29;20048;-70
2023/04/09 05:09:21;;;;;;;45.95;29.05;;;;;;;5.80;87.36;102423.22;4902122;29;20042;-70
2023/04/09 05:11:46;;;;;;;46.38;29.92;;;;;;;5.72;87.45;102417.75;4901292;29;20050;-70
2023/04/09 05:14:12;;;;;;;43.38;28.75;;;;;;;5.72;87.62;102414.28;4902172;29;20083;-70
2023/04/09 05:16:39;;;;;;;46.10;28.63;;;;;;;5.67;87.25;102414.09;4898678;29;20086;-70
2023/04/09 05:19:04;;;;;;;46.83;29.80;;;;;;;5.68;87.61;102420.22;4917699;29;20143;-70
2023/04/09 05:21:30;;;;;;;43.35;30.05;;;;;;;5.67;87.94;102423.63;4886619;29;20035;-69
2023/04/09 05:23:56;;;;;;;45.83;29.88;;;;;;;5.65;87.65;102420.13;4885747;29;20114;-70
2023/04/09 05:26:22;;;;;;;47.92;29.05;;;;;;;5.60;88.25;102416.47;4899110;29;20040;-69
2023/04/09 05:28:47;;;;;;;47.60;30.05;;;;;;;5.62;88.86;102426.09;4889221;29;20051;-70
2023/04/09 05:31:14;;;;;;;44.95;29.45;;;;;;;5.62;88.80;102417.41;4901183;29;20056;-69
2023/04/09 05:33:40;;;;;;;46.67;32.35;;;;;;;5.65;88.56;102415.78;4898991;29;20501;-69
2023/04/09 05:36:06;;;;;;;47.67;29.85;;;;;;;5.68;88.41;102412.41;4901708;29;20044;-69
2023/04/09 05:38:32;;;;;;;47.97;29.30;;;;;;;5.69;88.70;102422.88;4918002;29;20066;-70
2023/04/09 05:40:57;;;;;;;48.83;29.67;;;;;;;5.75;88.49;102418.69;4901500;29;20439;-70
2023/04/09 05:43:23;;;;;;;47.45;30.33;;;;;;;5.76;88.89;102415.25;4889801;29;20043;-70
2023/04/09 05:45:48;;;;;;;47.33;30.15;;;;;;;5.79;89.04;102413.66;4898611;29;20456;-70
2023/04/09 05:48:14;;;;;;;45.40;29.55;;;;;;;5.84;88.48;102417.28;4901696;29;20055;-69
2023/04/09 05:50:39;;;;;;;49.05;30.85;;;;;;;5.82;88.78;102407.66;4902049;29;20058;-70
2023/04/09 05:53:05;;;;;;;48.00;30.10;;;;;;;5.82;88.96;102421.56;4886704;29;20039;-70
2023/04/09 05:55:31;;;;;;;41.55;28.75;;;;;;;5.87;88.66;102422.59;4910638;29;20476;-69
2023/04/09 05:57:57;;;;;;;45.10;30.42;;;;;;;5.93;88.69;102421.03;4905440;29;20047;-74
2023/04/09 06:00:22;;;;;;;43.30;28.92;;;;;;;5.90;88.53;102411.41;4905434;29;20061;-74
2023/04/09 06:02:48;;;;;;;46.42;31.08;;;;;;;5.98;88.44;102412.56;4919925;29;20047;-74
2023/04/09 06:05:13;;;;;;;50.58;30.35;;;;;;;6.07;88.83;102410.25;4904826;29;20054;-74
2023/04/09 06:07:39;;;;;;;47.75;31.05;;;;;;;6.16;87.98;102424.41;4921083;29;20384;-73
2023/04/09 06:10:05;;;;;;;47.88;30.50;;;;;;;6.23;87.52;102422.06;4906453;29;20048;-69
2023/04/09 06:12:33;;;;;;;43.78;29.95;;;;;;;6.33;88.04;102423.22;4903499;29;20449;-70
2023/04/09 06:14:59;;;;;;;48.10;31.33;;;;;;;6.49;88.35;102428.91;4905484;29;20480;-70
2023/04/09 06:17:24;;;;;;;46.47;31.25;;;;;;;6.65;88.20;102425.03;4902607;29;20058;-70
2023/04/09 06:19:51;;;;;;;45.75;30.85;;;;;;;6.80;87.12;102416.81;4904156;29;20043;-70
2023/04/09 06:22:16;;;;;;;44.80;29.60;;;;;;;7.01;87.18;102429.53;4901908;29;20095;-70
2023/04/09 06:24:42;;;;;;;48.75;30.75;;;;;;;7.20;86.48;102429.25;4894261;29;20484;-70
2023/04/09 06:27:07;;;;;;;47.13;30.40;;;;;;;7.39;86.61;102427.13;4919484;29;20048;-70
2023/04/09 06:29:33;;;;;;;44.35;30.90;;;;;;;7.57;84.66;102427.63;4904355;29;20054;-70
2023/04/09 06:31:58;;;;;;;45.47;29.13;;;;;;;7.75;83.91;102426.31;4904566;29;20047;-70
2023/04/09 06:34:24;;;;;;;42.65;29.60;;;;;;;7.93;82.45;102441.53;4920661;29;20039;-70
2023/04/09 06:36:49;;;;;;;40.70;29.98;;;;;;;8.21;82.47;102443.09;4902243;29;20054;-70
2023/04/09 06:39:15;;;;;;;42.10;28.20;;;;;;;8.34;80.69;102436.44;4920050;29;20039;-70
2023/04/09 06:41:40;;;;;;;37.97;27.83;;;;;;;8.55;81.38;102443.03;4889074;29;20040;-69
2023/04/09 06:44:06;;;;;;;42.05;29.60;;;;;;;8.64;79.91;102438.88;4900785;29;20040;-70
2023/04/09 06:46:32;;;;;;;39.40;28.85;;;;;;;8.97;80.91;102448.31;4901939;29;20136;-70
2023/04/09 06:48:57;;;;;;;39.33;28.20;;;;;;;9.08;78.40;102450.25;4904223;29;20131;-70
2023/04/09 06:51:23;;;;;;;37.67;27.98;;;;;;;9.16;78.00;102444.31;4920221;29;20504;-71
2023/04/09 06:53:48;;;;;;;38.55;29.10;;;;;;;9.49;77.72;102445.81;4872846;29;20047;-70
2023/04/09 06:56:14;;;;;;;38.13;28.45;;;;;;;9.83;77.38;102442.94;4949565;29;20035;-71
2023/04/09 06:58:40;;;;;;;37.80;27.45;;;;;;;9.79;75.40;102447.22;4904583;29;20044;-71
2023/04/09 07:01:05;;;;;;;37.50;28.15;;;;;;;10.03;76.41;102441.53;4900614;29;20126;-71
2023/04/09 07:03:31;;;;;;;38.58;28.35;;;;;;;10.42;75.32;102443.91;4900898;29;20059;-70
2023/04/09 07:05:56;;;;;;;36.45;27.13;;;;;;;10.43;73.44;102453.50;4893192;29;20547;-71
2023/04/09 07:08:22;;;;;;;36.35;27.52;;;;;;;10.77;72.43;102448.75;4884840;29;20048;-71
2023/04/09 07:10:48;;;;;;;37.10;27.77;;;;;;;10.81;71.75;102455.78;4916970;29;20183;-70
2023/04/09 07:13:13;;;;;;;36.45;27.33;;;;;;;10.90;70.36;102453.28;4902877;29;20496;-71
2023/04/09 07:15:39;;;;;;;36.63;26.92;;;;;;;10.73;70.00;102451.31;4903787;29;20040;-71
2023/04/09 07:18:05;;;;;;;37.58;26.95;;;;;;;10.58;70.04;102453.72;4887385;29;20050;-70
2023/04/09 07:20:33;;;;;;;34.13;26.48;;;;;;;10.43;69.82;102451.78;4918693;29;20049;-71
2023/04/09 07:22:58;;;;;;;36.30;27.30;;;;;;;10.24;70.29;102445.31;4903883;29;20066;-70
2023/04/09 07:25:24;;;;;;;36.28;28.67;;;;;;;10.24;72.20;102455.81;4903866;29;20040;-70
2023/04/09 07:27:49;;;;;;;35.35;28.05;;;;;;;10.09;70.80;102450.34;4899588;29;20041;-70
2023/04/09 07:30:15;;;;;;;37.88;28.65;;;;;;;9.85;72.43;102456.94;4903758;29;20156;-70
2023/04/09 07:32:40;;;;;;;36.40;28.35;;;;;;;9.74;73.18;102458.47;4889056;29;20074;-70
2023/04/09 07:35:08;;;;;;;39.00;28.65;;;;;;;9.68;72.80;102462.75;4900367;29;20044;-70
2023/04/09 07:37:34;;;;;;;36.25;27.67;;;;;;;9.76;73.96;102462.00;4913648;29;20542;-70
2023/04/09 07:40:00;;;;;;;40.85;29.80;;;;;;;9.68;73.68;102459.25;4903494;29;20051;-70
2023/04/09 07:42:26;;;;;;;38.78;29.92;;;;;;;9.71;74.26;102464.53;4900697;29;20143;-70
2023/04/09 07:44:51;;;;;;;42.28;30.83;;;;;;;9.58;74.76;102462.56;4919144;29;20050;-70
2023/04/09 07:47:17;;;;;;;38.85;27.95;;;;;;;9.59;75.08;102454.72;4884764;29;20048;-70
2023/04/09 07:49:42;;;;;;;44.35;30.23;;;;;;;9.58;74.33;102452.94;4887157;29;20051;-70
2023/04/09 07:52:07;;;;;;;39.47;30.60;;;;;;;9.56;75.35;102459.03;4899991;29;20511;-70
2023/04/09 07:54:33;;;;;;;40.88;30.98;;;;;;;9.49;74.60;102464.13;4899544;29;20040;-70
2023/04/09 07:57:00;;;;;;;41.97;30.58;;;;;;;9.49;76.37;102461.50;4917570;29;20058;-70
2023/04/09 07:59:30;;;;;;;41.85;29.77;;;;;;;9.55;75.65;102458.13;4883240;29;20052;-70
2023/04/09 08:01:55;;;;;;;41.50;30.35;;;;;;;9.62;75.34;102464.38;4901580;29;20142;-72
2023/04/09 08:04:21;;;;;;;41.30;30.98;;;;;;;9.63;75.07;102451.31;4918127;29;20067;-73
2023/04/09 08:06:49;;;;;;;42.90;31.23;;;;;;;9.59;75.10;102459.09;4906151;29;20406;-72
2023/04/09 08:09:19;;;;;;;45.30;31.77;;;;;;;9.65;76.57;102460.06;4898958;29;20384;-73
2023/04/09 08:11:46;;;;;;;43.85;30.45;;;;;;;9.76;75.83;102462.88;4912398;29;20433;-72
2023/04/09 08:14:13;;;;;;;42.40;31.33;;;;;;;10.10;76.56;102446.84;4918602;29;20043;-72
2023/04/09 08:16:43;;;;;;;42.50;32.35;;;;;;;10.68;75.43;102453.00;4917393;29;20543;-73
2023/04/09 08:19:09;;;;;;;44.58;34.50;;;;;;;11.11;76.49;102450.03;4916873;29;20488;-73
2023/04/09 08:21:42;;;;;;;43.15;33.35;;;;;;;11.82;75.40;102449.88;4917442;29;20461;-72
2023/04/09 08:24:11;;;;;;;45.08;35.20;;;;;;;12.02;70.75;102450.94;4917924;29;20064;-71
2023/04/09 08:26:40;;;;;;;41.67;33.97;;;;;;;12.04;69.78;102454.50;4903679;29;20384;-71
2023/04/09 08:29:07;;;;;;;43.35;33.40;;;;;;;12.27;67.15;102441.50;4898637;29;20052;-70
2023/04/09 08:31:33;;;;;;;44.78;33.42;;;;;;;12.22;68.51;102448.47;4897688;29;20536;-71
2023/04/09 08:33:58;;;;;;;41.55;33.60;;;;;;;12.23;69.37;102444.13;4902511;29;20134;-71
2023/04/09 08:36:25;;;;;;;40.17;32.75;;;;;;;12.29;69.31;102452.91;4884621;29;20187;-70
2023/04/09 08:38:51;;;;;;;41.15;33.22;;;;;;;12.48;66.21;102453.94;4900415;29;20201;-70
2023/04/09 08:41:23;;;;;;;41.03;32.65;;;;;;;12.97;68.03;102460.28;4899659;29;20036;-70
2023/04/09 08:43:50;;;;;;;38.75;31.75;;;;;;;12.99;67.13;102459.44;4916092;29;20067;-70
2023/04/09 08:46:17;;;;;;;41.17;32.95;;;;;;;12.62;65.79;102453.13;4922719;29;20047;-70
2023/04/09 08:48:44;;;;;;;43.22;33.47;;;;;;;12.86;65.62;102455.00;4928668;29;20039;-71
2023/04/09 08:51:15;;;;;;;40.55;32.85;;;;;;;13.05;66.06;102448.06;4936823;29;20053;-70
2023/04/09 08:53:46;;;;;;;41.25;33.38;;;;;;;12.74;65.09;102441.78;4902491;29;20487;-70
2023/04/09 08:56:12;;;;;;;38.47;32.92;;;;;;;12.96;66.30;102442.75;4931096;29;20042;-70
2023/04/09 08:58:43;;;;;;;40.05;31.92;;;;;;;12.77;65.16;102440.06;4905941;29;20043;-70
2023/04/09 09:01:26;;;;;;;43.22;35.00;;;;;;;13.26;67.04;102435.81;4923819;29;20044;-70
2023/04/09 09:03:59;;;;;;;40.17;34.80;;;;;;;12.79;64.39;102437.44;4912488;29;20048;-71
2023/04/09 09:06:31;;;;;;;44.67;34.22;;;;;;;12.61;64.66;102435.56;4904636;29;20024;-71
2023/04/09 09:09:07;;;;;;;40.35;33.88;;;;;;;12.83;66.79;102434.81;4925462;29;20043;-70
2023/04/09 09:11:40;;;;;;;41.58;33.22;;;;;;;13.09;67.83;102436.66;4918403;29;20681;-70
2023/04/09 09:14:07;;;;;;;39.50;32.67;;;;;;;13.45;68.38;102437.66;4919407;29;20040;-70
2023/04/09 09:16:34;;;;;;;40.50;32.63;;;;;;;13.73;65.75;102431.53;4924779;29;20043;-70
2023/04/09 09:19:01;;;;;;;37.80;32.67;;;;;;;14.05;63.90;102434.19;4916717;29;20503;-70
2023/04/09 09:21:28;;;;;;;39.33;32.22;;;;;;;14.29;62.57;102438.53;4897797;29;20083;-70
2023/04/09 09:23:55;;;;;;;39.40;32.63;;;;;;;14.25;62.23;102426.25;4898221;29;20052;-70
2023/04/09 09:26:28;;;;;;;41.10;32.38;;;;;;;14.27;63.74;102429.75;4896961;29;20043;-70
2023/04/09 09:28:57;;;;;;;38.80;30.65;;;;;;;14.73;62.20;102423.50;4918809;29;20028;-70
2023/04/09 09:31:23;;;;;;;37.40;29.75;;;;;;;14.84;60.43;102421.72;4920644;29;20040;-70
2023/04/09 09:41:33;;;;;;;33.03;27.60;;;;;;;14.47;58.98;102416.53;5256033;23;20058;-73
2023/04/09 10:50:24;;;;;;;19.55;16.90;;;;;;;14.40;53.24;102354.13;3290942;26;20052;-73
2023/04/09 10:52:59;;;;;;;20.00;16.58;;;;;;;14.04;52.66;102359.50;4901392;29;20404;-73
2023/04/09 10:55:39;;;;;;;20.35;15.25;;;;;;;13.89;51.06;102345.47;4901345;29;20452;-70
2023/04/09 10:58:07;;;;;;;19.27;15.52;;;;;;;13.73;51.80;102348.13;4885757;29;20560;-70
2023/04/09 11:00:40;;;;;;;19.85;16.05;;;;;;;13.73;53.08;102345.47;4901673;29;20047;-70
2023/04/09 11:03:31;;;;;;;19.90;15.77;;;;;;;14.10;56.19;102347.19;4906154;29;20433;-70
2023/04/09 11:06:04;;;;;;;18.92;16.20;;;;;;;14.51;54.87;102341.78;4903527;29;20036;-73
2023/04/09 11:08:31;;;;;;;17.70;14.98;;;;;;;14.72;53.39;102345.22;4902263;29;20032;-74
2023/04/09 11:10:58;;;;;;;18.70;15.35;;;;;;;14.92;53.91;102328.41;4890953;29;20028;-74
2023/04/09 11:13:24;;;;;;;20.33;16.00;;;;;;;14.77;50.60;102338.19;4900995;29;20362;-73
2023/04/09 11:15:50;;;;;;;16.10;13.57;;;;;;;14.47;51.33;102336.53;4895202;29;20107;-74
2023/04/09 11:18:23;;;;;;;21.27;17.00;;;;;;;14.03;51.36;102330.50;4891071;29;20488;-73
2023/04/09 11:20:57;;;;;;;16.17;13.63;;;;;;;14.08;54.43;102333.13;4900836;29;20451;-71
2023/04/09 11:23:23;;;;;;;15.45;12.75;;;;;;;14.19;51.57;102332.22;4906954;29;20106;-70
2023/04/09 11:25:50;;;;;;;15.88;13.02;;;;;;;14.13;52.73;102331.38;4889494;29;20044;-70
2023/04/09 11:28:16;;;;;;;18.15;14.23;;;;;;;14.22;51.48;102320.78;4884798;29;20046;-70
2023/04/09 11:30:42;;;;;;;17.50;14.05;;;;;;;14.24;50.81;102329.56;4898292;29;20143;-70
2023/04/09 11:33:08;;;;;;;18.55;14.25;;;;;;;14.51;53.29;102333.88;4904680;29;20051;-70
2023/04/09 11:35:37;;;;;;;15.73;13.50;;;;;;;14.85;53.72;102332.84;4903786;29;20051;-70
2023/04/09 11:38:10;;;;;;;21.70;18.90;;;;;;;14.97;52.23;102327.50;4901312;29;20044;-70
2023/04/09 11:40:42;;;;;;;21.00;18.75;;;;;;;14.78;46.76;102326.72;4900650;29;20047;-71
2023/04/09 11:43:07;;;;;;;17.63;15.77;;;;;;;14.61;47.53;102328.53;4884236;29;20178;-70
2023/04/09 11:45:33;;;;;;;18.60;15.90;;;;;;;14.77;49.31;102327.63;4900873;29;20196;-70
2023/04/09 11:48:00;;;;;;;15.90;12.85;;;;;;;14.58;46.45;102320.63;4881636;29;20111;-70
2023/04/09 11:50:27;;;;;;;12.93;11.32;;;;;;;14.30;46.55;102318.13;4903746;29;20088;-70
2023/04/09 11:52:52;;;;;;;11.55;10.02;;;;;;;14.56;49.16;102316.25;4887470;29;20044;-70
2023/04/09 11:55:23;;;;;;;14.93;11.85;;;;;;;14.64;47.45;102324.16;4884522;29;20059;-71
2023/04/09 11:57:50;;;;;;;15.30;12.98;;;;;;;14.62;47.60;102325.06;4893017;29;20040;-71
2023/04/09 12:00:18;;;;;;;14.00;11.13;;;;;;;14.52;49.39;102314.53;4910294;29;20039;-70
2023/04/09 12:02:46;;;;;;;14.65;11.20;;;;;;;14.56;46.80;102318.00;4886191;29;20044;-70
2023/04/09 12:05:19;;;;;;;13.73;11.20;;;;;;;14.61;50.21;102317.97;4885355;29;20496;-71
2023/04/09 12:07:45;;;;;;;13.68;11.23;;;;;;;14.80;51.12;102309.13;4906815;29;20036;-70
2023/04/09 12:10:11;;;;;;;11.65;10.00;;;;;;;14.97;48.18;102310.78;4890239;29;20102;-71
2023/04/09 12:12:41;;;;;;;15.85;10.82;;;;;;;14.94;46.24;102309.06;4900570;29;20036;-70
2023/04/09 12:15:22;;;;;;;12.20;10.23;;;;;;;14.80;47.63;102322.31;4907855;29;20039;-70
2023/04/09 12:17:54;;;;;;;12.38;10.02;;;;;;;14.95;49.96;102312.56;4901034;29;20488;-70
2023/04/09 12:20:30;;;;;;;11.05;9.50;;;;;;;14.97;48.66;102308.13;4884504;29;20208;-71
2023/04/09 12:22:59;;;;;;;11.82;9.23;;;;;;;15.40;46.24;102306.06;4899749;29;20039;-70
2023/04/09 12:25:24;;;;;;;13.35;10.60;;;;;;;15.29;46.35;102301.75;4884212;29;20185;-70
2023/04/09 12:27:50;;;;;;;11.77;9.18;;;;;;;15.32;49.26;102301.72;4885115;29;20138;-70
2023/04/09 12:30:15;;;;;;;11.40;9.77;;;;;;;15.44;47.17;102301.59;4883044;29;20043;-74
2023/04/09 12:32:43;;;;;;;12.80;10.75;;;;;;;15.51;50.97;102300.66;4898058;29;20051;-74
2023/04/09 12:35:09;;;;;;;12.18;9.73;;;;;;;15.44;47.02;102298.09;4883653;29;20388;-74
2023/04/09 12:37:34;;;;;;;11.20;10.00;;;;;;;15.27;51.15;102295.59;4899457;29;20039;-73
2023/04/09 12:40:00;;;;;;;12.73;10.18;;;;;;;15.15;46.83;102293.94;4882634;29;20040;-73
2023/04/09 12:42:25;;;;;;;13.60;11.73;;;;;;;14.87;46.92;102297.66;4899274;29;20051;-73
2023/04/09 12:44:51;;;;;;;13.95;11.73;;;;;;;14.81;46.94;102296.78;4883752;29;20028;-74
2023/04/09 12:47:16;;;;;;;11.40;9.82;;;;;;;14.73;46.21;102299.50;4883724;29;20401;-74
2023/04/09 12:49:45;;;;;;;12.25;10.48;;;;;;;14.88;46.54;102295.88;4897777;29;20500;-74